createdAt,value
2018-11-04T00:00:25.296Z,7.70
2018-11-04T00:02:53.821Z,7.60
2018-11-04T00:05:22.222Z,7.50
2018-11-04T00:07:51.323Z,7.50
2018-11-04T00:10:19.757Z,7.50
2018-11-04T00:12:48.173Z,7.50
2018-11-04T00:15:16.642Z,7.50
2018-11-04T00:17:45.021Z,7.50
2018-11-04T00:20:14.524Z,7.50
2018-11-04T00:22:43.046Z,7.50
2018-11-04T00:25:13.429Z,7.50
2018-11-04T00:27:43.641Z,7.50
2018-11-04T00:30:13.663Z,7.50
2018-11-04T00:32:44.292Z,7.50
2018-11-04T00:35:12.832Z,7.50
2018-11-04T00:37:41.260Z,7.50
2018-11-04T00:40:10.014Z,7.60
2018-11-04T00:42:38.540Z,7.60
2018-11-04T00:45:08.541Z,7.60
2018-11-04T00:47:39.103Z,7.60
2018-11-04T00:50:09.861Z,7.60
2018-11-04T00:52:38.904Z,7.60
2018-11-04T00:55:09.155Z,7.70
2018-11-04T00:57:37.710Z,7.70
2018-11-04T01:00:09.721Z,7.70
2018-11-04T01:02:38.218Z,7.70
2018-11-04T01:05:07.818Z,7.70
2018-11-04T01:07:36.401Z,7.70
2018-11-04T01:10:05.304Z,7.70
2018-11-04T01:12:33.835Z,7.70
2018-11-04T01:15:02.444Z,7.60
2018-11-04T01:17:30.968Z,7.60
2018-11-04T01:19:59.401Z,7.70
2018-11-04T01:22:27.809Z,7.60
2018-11-04T01:24:56.730Z,7.60
2018-11-04T01:27:26.246Z,7.70
2018-11-04T01:29:54.711Z,7.70
2018-11-04T01:32:24.096Z,7.70
2018-11-04T01:34:52.668Z,7.70
2018-11-04T01:37:21.317Z,7.70
2018-11-04T01:39:49.757Z,7.80
2018-11-04T01:42:18.340Z,7.80
2018-11-04T01:44:46.805Z,7.80
2018-11-04T01:47:15.217Z,7.80
2018-11-04T01:49:43.781Z,7.80
2018-11-04T01:52:12.203Z,7.80
2018-11-04T01:54:40.792Z,7.80
2018-11-04T01:57:09.299Z,7.90
2018-11-04T01:59:37.757Z,7.90
2018-11-04T02:02:06.370Z,7.90
2018-11-04T02:04:35.180Z,7.90
2018-11-04T02:07:03.665Z,7.90
2018-11-04T02:09:32.152Z,7.90
2018-11-04T02:12:00.665Z,7.90
2018-11-04T02:14:29.078Z,7.90
2018-11-04T02:16:57.512Z,7.90
2018-11-04T02:19:25.988Z,7.80
2018-11-04T02:21:54.488Z,7.80
2018-11-04T02:24:22.940Z,7.80
2018-11-04T02:26:51.410Z,7.80
2018-11-04T02:29:19.805Z,7.80
2018-11-04T02:31:48.263Z,7.70
2018-11-04T02:34:16.789Z,7.70
2018-11-04T02:36:45.226Z,7.70
2018-11-04T02:39:13.718Z,7.70
2018-11-04T02:41:42.154Z,7.70
2018-11-04T02:44:13.490Z,7.70
2018-11-04T02:46:41.960Z,7.70
2018-11-04T02:49:10.360Z,7.70
2018-11-04T02:51:38.961Z,7.70
2018-11-04T02:54:07.660Z,7.70
2018-11-04T02:56:36.399Z,7.70
2018-11-04T02:59:05.123Z,7.70
2018-11-04T03:01:33.513Z,7.70
2018-11-04T03:04:01.966Z,7.80
2018-11-04T03:06:30.480Z,7.80
2018-11-04T03:08:59.417Z,7.80
2018-11-04T03:11:30.738Z,7.80
2018-11-04T03:13:59.211Z,7.80
2018-11-04T03:16:27.640Z,7.80
2018-11-04T03:18:56.084Z,7.80
2018-11-04T03:21:24.490Z,7.90
2018-11-04T03:23:52.969Z,7.90
2018-11-04T03:26:21.393Z,7.90
2018-11-04T03:28:50.276Z,7.90
2018-11-04T03:31:18.737Z,7.90
2018-11-04T03:33:47.203Z,7.90
2018-11-04T03:36:15.602Z,7.90
2018-11-04T03:38:44.007Z,7.90
2018-11-04T03:41:12.530Z,7.90
2018-11-04T03:43:40.978Z,7.90
2018-11-04T03:46:09.437Z,7.90
2018-11-04T03:48:38.038Z,7.90
2018-11-04T03:51:06.528Z,7.90
2018-11-04T03:53:34.937Z,7.90
2018-11-04T03:56:03.459Z,7.90
2018-11-04T03:58:31.968Z,7.90
2018-11-04T04:01:00.353Z,7.90
2018-11-04T04:03:28.808Z,7.90
2018-11-04T04:05:57.291Z,7.90
2018-11-04T04:08:25.837Z,7.90
2018-11-04T04:10:54.190Z,7.90
2018-11-04T04:13:22.595Z,7.90
2018-11-04T04:15:51.013Z,7.90
2018-11-04T04:18:19.442Z,7.90
2018-11-04T04:20:47.922Z,7.90
2018-11-04T04:23:16.347Z,7.80
2018-11-04T04:25:44.767Z,7.80
2018-11-04T04:28:13.290Z,7.80
2018-11-04T04:30:42.522Z,7.80
2018-11-04T04:33:10.986Z,7.80
2018-11-04T04:35:39.641Z,7.80
2018-11-04T04:38:08.087Z,7.80
2018-11-04T04:40:36.544Z,7.80
2018-11-04T04:43:05.288Z,7.80
2018-11-04T04:45:33.764Z,7.90
2018-11-04T04:48:02.224Z,7.80
2018-11-04T04:50:30.829Z,7.80
2018-11-04T04:52:59.389Z,7.80
2018-11-04T04:55:27.851Z,7.80
2018-11-04T04:57:56.474Z,7.80
2018-11-04T05:00:25.083Z,7.80
2018-11-04T05:02:53.538Z,7.80
2018-11-04T05:05:21.924Z,7.80
2018-11-04T05:07:50.492Z,7.80
2018-11-04T05:10:18.920Z,7.90
2018-11-04T05:12:47.393Z,7.90
2018-11-04T05:15:15.817Z,7.90
2018-11-04T05:17:45.633Z,7.90
2018-11-04T05:20:14.156Z,7.90
2018-11-04T05:22:42.621Z,7.90
2018-11-04T05:25:11.088Z,7.90
2018-11-04T05:27:39.685Z,7.90
2018-11-04T05:30:09.698Z,7.90
2018-11-04T05:32:38.317Z,7.90
2018-11-04T05:35:07.030Z,7.90
2018-11-04T05:37:35.776Z,7.90
2018-11-04T05:40:05.319Z,7.90
2018-11-04T05:42:33.764Z,8.00
2018-11-04T05:45:02.202Z,8.00
2018-11-04T05:47:30.788Z,8.00
2018-11-04T05:49:59.197Z,8.00
2018-11-04T05:52:27.719Z,8.00
2018-11-04T05:54:56.224Z,8.00
2018-11-04T05:57:24.649Z,8.10
2018-11-04T05:59:53.187Z,8.10
2018-11-04T06:02:21.651Z,8.20
2018-11-04T06:04:50.080Z,8.20
2018-11-04T06:07:18.619Z,8.20
2018-11-04T06:09:47.086Z,8.20
2018-11-04T06:12:15.541Z,8.30
2018-11-04T06:14:43.992Z,8.30
2018-11-04T06:17:12.525Z,8.30
2018-11-04T06:19:41.138Z,8.40
2018-11-04T06:22:09.516Z,8.40
2018-11-04T06:24:38.514Z,8.40
2018-11-04T06:27:06.978Z,8.40
2018-11-04T06:29:35.400Z,8.40
2018-11-04T06:32:03.850Z,8.50
2018-11-04T06:34:32.342Z,8.50
2018-11-04T06:37:00.749Z,8.50
2018-11-04T06:39:31.488Z,8.50
2018-11-04T06:41:59.994Z,8.50
2018-11-04T06:44:28.440Z,8.50
2018-11-04T06:46:57.735Z,8.50
2018-11-04T06:49:26.219Z,8.50
2018-11-04T06:51:54.759Z,8.50
2018-11-04T06:54:23.230Z,8.40
2018-11-04T06:56:51.722Z,8.40
2018-11-04T06:59:20.165Z,8.30
2018-11-04T07:01:48.586Z,8.20
2018-11-04T07:04:19.060Z,8.20
2018-11-04T07:06:47.779Z,8.20
2018-11-04T07:09:16.514Z,8.20
2018-11-04T07:11:45.793Z,8.20
2018-11-04T07:14:17.549Z,8.20
2018-11-04T07:16:46.363Z,8.20
2018-11-04T07:19:15.366Z,8.20
2018-11-04T07:21:44.668Z,8.20
2018-11-04T07:24:13.155Z,8.20
2018-11-04T07:26:41.659Z,8.20
2018-11-04T07:29:10.280Z,8.20
2018-11-04T07:31:38.749Z,8.20
2018-11-04T07:34:07.581Z,8.20
2018-11-04T07:36:36.103Z,8.20
2018-11-04T07:39:07.893Z,8.20
2018-11-04T07:41:36.391Z,8.20
2018-11-04T07:44:04.905Z,8.30
2018-11-04T07:46:33.456Z,8.30
2018-11-04T07:49:01.940Z,8.30
2018-11-04T07:51:30.467Z,8.30
2018-11-04T07:53:58.784Z,8.30
2018-11-04T07:56:27.315Z,8.30
2018-11-04T07:58:55.728Z,8.30
2018-11-04T08:01:24.205Z,8.30
2018-11-04T08:03:52.634Z,8.30
2018-11-04T08:06:21.126Z,8.30
2018-11-04T08:08:49.597Z,8.40
2018-11-04T08:11:18.064Z,8.40
2018-11-04T08:13:46.501Z,8.50
2018-11-04T08:16:14.885Z,8.50
2018-11-04T08:18:43.294Z,8.60
2018-11-04T08:21:11.830Z,8.60
2018-11-04T08:23:40.284Z,8.60
2018-11-04T08:26:08.993Z,8.70
2018-11-04T08:28:37.414Z,8.70
2018-11-04T08:31:05.945Z,8.70
2018-11-04T08:33:34.565Z,8.80
2018-11-04T08:36:03.136Z,8.80
2018-11-04T08:38:31.696Z,8.80
2018-11-04T08:41:00.184Z,8.90
2018-11-04T08:43:28.640Z,8.90
2018-11-04T08:45:57.260Z,8.90
2018-11-04T08:48:25.665Z,9.00
2018-11-04T08:50:54.080Z,9.00
2018-11-04T08:53:22.497Z,9.00
2018-11-04T08:55:51.209Z,9.00
2018-11-04T08:58:19.722Z,9.10
2018-11-04T09:00:48.197Z,9.10
2018-11-04T09:03:16.654Z,9.10
2018-11-04T09:05:45.113Z,9.10
2018-11-04T09:08:13.652Z,9.10
2018-11-04T09:10:42.164Z,9.10
2018-11-04T09:13:10.658Z,9.10
2018-11-04T09:15:39.087Z,9.10
2018-11-04T09:18:07.812Z,9.20
2018-11-04T09:20:36.409Z,9.20
2018-11-04T09:23:05.281Z,9.20
2018-11-04T09:25:33.732Z,9.20
2018-11-04T09:28:02.193Z,9.30
2018-11-04T09:30:30.863Z,9.30
2018-11-04T09:32:59.332Z,9.30
2018-11-04T09:35:28.009Z,9.30
2018-11-04T09:37:56.319Z,9.30
2018-11-04T09:40:24.849Z,9.30
2018-11-04T09:42:53.259Z,9.40
2018-11-04T09:45:21.739Z,9.40
2018-11-04T09:47:50.434Z,9.50
2018-11-04T09:50:18.993Z,9.50
2018-11-04T09:52:47.585Z,9.60
2018-11-04T09:55:16.015Z,9.60
2018-11-04T09:57:44.720Z,9.70
2018-11-04T10:00:13.529Z,9.80
2018-11-04T10:02:42.044Z,9.90
2018-11-04T10:05:11.600Z,9.90
2018-11-04T10:07:43.149Z,10.00
2018-11-04T10:10:13.017Z,10.10
2018-11-04T10:13:01.405Z,10.10
2018-11-04T10:15:36.988Z,10.10
2018-11-04T10:18:05.920Z,10.10
2018-11-04T10:20:34.658Z,10.10
2018-11-04T10:23:03.026Z,10.10
2018-11-04T10:25:31.509Z,10.10
2018-11-04T10:28:00.741Z,10.10
2018-11-04T10:30:29.331Z,10.10
2018-11-04T10:32:58.968Z,10.10
2018-11-04T10:35:27.648Z,10.10
2018-11-04T10:37:56.385Z,10.10
2018-11-04T10:40:25.018Z,10.20
2018-11-04T10:42:53.536Z,10.20
2018-11-04T10:45:21.985Z,10.30
2018-11-04T10:47:50.505Z,10.30
2018-11-04T10:50:19.692Z,10.40
2018-11-04T10:52:48.762Z,10.50
2018-11-04T10:55:17.253Z,10.60
2018-11-04T10:57:45.742Z,10.60
2018-11-04T11:00:19.646Z,10.60
2018-11-04T11:02:48.082Z,10.70
2018-11-04T11:05:16.608Z,10.80
2018-11-04T11:07:45.393Z,10.90
2018-11-04T11:10:14.031Z,11.10
2018-11-04T11:12:45.988Z,11.20
2018-11-04T11:20:17.820Z,11.40
2018-11-04T11:22:46.830Z,11.60
2018-11-04T11:25:17.575Z,11.80
2018-11-04T11:27:46.686Z,11.90
2018-11-04T11:30:16.298Z,12.00
2018-11-04T11:32:46.082Z,12.10
2018-11-04T11:35:16.138Z,12.20
2018-11-04T11:37:45.320Z,12.30
2018-11-04T11:40:14.925Z,12.40
2018-11-04T11:42:44.955Z,12.40
2018-11-04T11:45:14.139Z,12.40
2018-11-04T11:47:42.615Z,12.40
2018-11-04T11:50:11.097Z,12.50
2018-11-04T11:52:39.570Z,12.50
2018-11-04T11:55:08.262Z,12.60
2018-11-04T11:57:36.740Z,12.60
2018-11-04T12:00:08.292Z,12.60
2018-11-04T12:02:37.208Z,12.70
2018-11-04T12:05:07.116Z,12.70
2018-11-04T12:07:35.844Z,12.70
2018-11-04T12:10:04.696Z,12.70
2018-11-04T12:12:33.219Z,12.70
2018-11-04T12:15:01.721Z,12.70
2018-11-04T12:17:30.257Z,12.70
2018-11-04T12:19:58.829Z,12.80
2018-11-04T12:22:27.638Z,12.80
2018-11-04T12:24:56.100Z,12.80
2018-11-04T12:27:24.553Z,12.80
2018-11-04T12:29:52.997Z,12.80
2018-11-04T12:32:21.487Z,12.80
2018-11-04T12:34:51.489Z,12.80
2018-11-04T12:37:19.932Z,12.80
2018-11-04T12:39:48.391Z,12.80
2018-11-04T12:42:16.876Z,12.80
2018-11-04T12:44:45.424Z,12.80
2018-11-04T12:47:13.991Z,12.80
2018-11-04T12:49:42.548Z,12.80
2018-11-04T12:52:11.050Z,12.80
2018-11-04T12:54:39.528Z,12.80
2018-11-04T12:57:08.192Z,12.80
2018-11-04T12:59:36.769Z,12.80
2018-11-04T13:02:05.511Z,12.80
2018-11-04T13:04:33.948Z,12.70
2018-11-04T13:07:02.536Z,12.70
2018-11-04T13:09:30.956Z,12.70
2018-11-04T13:11:59.431Z,12.60
2018-11-04T13:14:32.759Z,12.60
2018-11-04T13:17:01.233Z,12.50
2018-11-04T13:19:29.841Z,12.50
2018-11-04T13:22:03.957Z,12.50
2018-11-04T13:24:33.161Z,12.50
2018-11-04T13:27:01.755Z,12.50
2018-11-04T13:29:30.167Z,12.50
2018-11-04T13:31:58.625Z,12.50
2018-11-04T13:34:27.075Z,12.50
2018-11-04T13:37:00.668Z,12.60
2018-11-04T13:39:30.460Z,12.60
2018-11-04T13:41:59.043Z,12.50
2018-11-04T13:44:27.926Z,12.50
2018-11-04T13:46:56.420Z,12.50
2018-11-04T13:49:24.920Z,12.50
2018-11-04T13:51:59.875Z,12.50
2018-11-04T13:54:28.332Z,12.50
2018-11-04T13:56:57.795Z,12.50
2018-11-04T13:59:26.699Z,12.50
2018-11-04T14:04:57.021Z,12.50
2018-11-04T14:07:26.559Z,12.50
2018-11-04T14:09:56.318Z,12.50
2018-11-04T14:12:25.651Z,12.50
2018-11-04T14:14:55.623Z,12.40
2018-11-04T14:17:25.896Z,12.40
2018-11-04T14:19:57.870Z,12.40
2018-11-04T14:22:29.120Z,12.40
2018-11-04T14:24:58.151Z,12.30
2018-11-04T14:27:26.983Z,12.30
2018-11-04T14:29:55.975Z,12.30
2018-11-04T14:32:24.768Z,12.30
2018-11-04T14:34:53.508Z,12.20
2018-11-04T14:37:25.007Z,12.20
2018-11-04T14:39:53.704Z,12.20
2018-11-04T14:42:24.381Z,12.20
2018-11-04T14:44:53.252Z,12.20
2018-11-04T14:47:21.754Z,12.20
2018-11-04T14:49:50.243Z,12.20
2018-11-04T14:52:18.804Z,12.10
2018-11-04T14:54:47.213Z,12.10
2018-11-04T14:57:15.775Z,12.10
2018-11-04T14:59:44.440Z,12.10
2018-11-04T15:02:12.998Z,12.10
2018-11-04T15:04:43.531Z,12.00
2018-11-04T15:07:12.417Z,12.00
2018-11-04T15:09:42.926Z,12.00
2018-11-04T15:12:11.844Z,12.00
2018-11-04T15:14:40.334Z,12.00
2018-11-04T15:17:08.784Z,12.00
2018-11-04T15:19:37.231Z,12.00
2018-11-04T15:22:05.770Z,11.90
2018-11-04T15:24:34.424Z,11.90
2018-11-04T15:27:03.343Z,11.90
2018-11-04T15:29:31.846Z,11.90
2018-11-04T15:32:00.672Z,11.80
2018-11-04T15:34:30.050Z,11.80
2018-11-04T15:36:58.535Z,11.80
2018-11-04T15:42:10.276Z,11.80
2018-11-04T15:44:38.925Z,11.70
2018-11-04T15:47:07.496Z,11.70
2018-11-04T15:49:37.595Z,11.70
2018-11-04T15:52:06.290Z,11.70
2018-11-04T15:54:39.119Z,11.70
2018-11-04T15:57:15.543Z,11.60
2018-11-04T15:59:44.485Z,11.60
2018-11-04T16:02:13.598Z,11.60
2018-11-04T16:04:45.074Z,11.60
2018-11-04T16:07:11.284Z,11.60
2018-11-04T16:09:40.013Z,11.60
2018-11-04T16:12:09.776Z,11.50
2018-11-04T16:14:39.920Z,11.50
2018-11-04T16:17:09.260Z,11.50
2018-11-04T16:19:37.778Z,11.50
2018-11-04T16:22:06.658Z,11.50
2018-11-04T16:24:35.461Z,11.50
2018-11-04T16:27:04.292Z,11.50
2018-11-04T16:29:33.176Z,11.50
2018-11-04T16:32:02.235Z,11.50
2018-11-04T16:34:30.652Z,11.50
2018-11-04T16:36:59.125Z,11.50
2018-11-04T16:39:27.526Z,11.40
2018-11-04T16:41:57.506Z,11.40
2018-11-04T16:44:26.518Z,11.40
2018-11-04T16:46:54.881Z,11.40
2018-11-04T16:49:24.351Z,11.40
2018-11-04T16:51:53.040Z,11.40
2018-11-04T16:54:21.536Z,11.40
2018-11-04T16:56:52.820Z,11.40
2018-11-04T16:59:21.621Z,11.40
2018-11-04T17:01:50.092Z,11.40
2018-11-04T17:04:19.358Z,11.40
2018-11-04T17:06:48.441Z,11.40
2018-11-04T17:09:17.292Z,11.40
2018-11-04T17:11:46.321Z,11.40
2018-11-04T17:14:14.757Z,11.40
2018-11-04T17:16:43.362Z,11.40
2018-11-04T17:19:11.821Z,11.40
2018-11-04T17:21:40.572Z,11.40
2018-11-04T17:24:09.266Z,11.40
2018-11-04T17:26:37.983Z,11.40
2018-11-04T17:29:07.214Z,11.40
2018-11-04T17:31:36.011Z,11.40
2018-11-04T17:34:04.749Z,11.40
2018-11-04T17:36:34.175Z,11.30
2018-11-04T17:39:02.861Z,11.30
2018-11-04T17:41:31.966Z,11.30
2018-11-04T17:44:00.744Z,11.30
2018-11-04T17:46:29.521Z,11.30
2018-11-04T17:48:58.397Z,11.30
2018-11-04T17:51:26.989Z,11.30
2018-11-04T17:53:56.017Z,11.30
2018-11-04T17:56:26.286Z,11.30
2018-11-04T17:58:55.764Z,11.30
2018-11-04T18:01:24.695Z,11.30
2018-11-04T18:03:55.082Z,11.20
2018-11-04T18:06:23.843Z,11.20
2018-11-04T18:08:54.617Z,11.20
2018-11-04T18:11:23.238Z,11.20
2018-11-04T18:13:52.520Z,11.20
2018-11-04T18:16:21.905Z,11.20
2018-11-04T18:18:50.910Z,11.20
2018-11-04T18:21:20.300Z,11.20
2018-11-04T18:23:49.340Z,11.20
2018-11-04T18:26:18.756Z,11.20
2018-11-04T18:28:47.870Z,11.20
2018-11-04T18:31:18.853Z,11.20
2018-11-04T18:33:50.836Z,11.20
2018-11-04T18:36:21.323Z,11.20
2018-11-04T18:38:51.454Z,11.20
2018-11-04T18:41:20.112Z,11.20
2018-11-04T18:43:48.883Z,11.20
2018-11-04T18:46:17.735Z,11.20
2018-11-04T18:48:49.792Z,11.20
2018-11-04T18:51:31.616Z,11.20
2018-11-04T18:54:03.323Z,11.20
2018-11-04T18:56:32.101Z,11.10
2018-11-04T18:59:01.204Z,11.10
2018-11-04T19:04:12.883Z,11.20
2018-11-04T19:06:41.339Z,11.10
2018-11-04T19:09:11.423Z,11.10
2018-11-04T19:11:40.064Z,11.10
2018-11-04T19:14:08.814Z,11.10
2018-11-04T19:16:37.599Z,11.10
2018-11-04T19:19:06.448Z,11.10
2018-11-04T19:21:34.869Z,11.10
2018-11-04T19:24:03.352Z,11.10
2018-11-04T19:26:33.288Z,11.10
2018-11-04T19:29:01.827Z,11.00
2018-11-04T19:31:30.462Z,11.00
2018-11-04T19:33:58.960Z,11.00
2018-11-04T19:36:27.898Z,11.00
2018-11-04T19:38:57.023Z,11.00
2018-11-04T19:41:26.402Z,11.00
2018-11-04T19:43:56.663Z,11.00
2018-11-04T19:46:29.813Z,11.00
2018-11-04T19:48:58.640Z,11.00
2018-11-04T19:51:27.912Z,11.00
2018-11-04T19:53:57.906Z,11.00
2018-11-04T19:56:28.233Z,11.00
2018-11-04T19:59:00.063Z,11.00
2018-11-04T20:01:38.927Z,11.00
2018-11-04T20:04:08.520Z,11.00
2018-11-04T20:06:37.563Z,11.00
2018-11-04T20:11:55.310Z,11.00
2018-11-04T20:14:26.293Z,11.00
2018-11-04T20:16:55.007Z,11.00
2018-11-04T20:19:28.859Z,11.00
2018-11-04T20:21:57.268Z,11.00
2018-11-04T20:24:30.987Z,11.00
2018-11-04T20:27:06.072Z,11.00
2018-11-04T20:29:35.631Z,11.00
2018-11-04T20:32:09.638Z,11.00
2018-11-04T20:34:39.538Z,11.00
2018-11-04T20:37:08.818Z,10.90
2018-11-04T20:40:45.136Z,10.90
2018-11-04T20:43:14.295Z,10.90
2018-11-04T20:45:42.876Z,10.90
2018-11-04T20:48:17.622Z,10.90
2018-11-04T20:50:51.769Z,10.90
2018-11-04T20:53:22.194Z,10.90
2018-11-04T20:55:56.442Z,10.90
2018-11-04T20:58:28.203Z,10.90
2018-11-04T21:00:56.754Z,10.90
2018-11-04T21:03:25.407Z,10.90
2018-11-04T21:05:53.854Z,11.00
2018-11-04T21:08:22.739Z,10.90
2018-11-04T21:10:56.354Z,11.00
2018-11-04T21:13:25.576Z,11.00
2018-11-04T21:15:57.703Z,11.00
2018-11-04T21:18:26.410Z,10.90
2018-11-04T21:20:55.218Z,10.90
2018-11-04T21:23:24.166Z,10.90
2018-11-04T21:25:52.959Z,10.90
2018-11-04T21:28:21.674Z,10.90
2018-11-04T21:30:50.295Z,10.90
2018-11-04T21:33:18.862Z,10.90
2018-11-04T21:35:47.681Z,10.90
2018-11-04T21:38:16.288Z,11.00
2018-11-04T21:40:44.766Z,11.00
2018-11-04T21:43:14.430Z,10.90
2018-11-04T21:45:43.056Z,10.90
2018-11-04T21:48:12.473Z,10.90
2018-11-04T21:50:41.235Z,11.00
2018-11-04T21:53:10.147Z,11.00
2018-11-04T21:55:40.719Z,11.00
2018-11-04T21:58:15.206Z,11.00
2018-11-04T22:00:44.490Z,11.00
2018-11-04T22:03:16.421Z,11.00
2018-11-04T22:05:45.078Z,11.00
2018-11-04T22:08:13.924Z,11.00
2018-11-04T22:10:42.573Z,11.00
2018-11-04T22:13:11.177Z,11.00
2018-11-04T22:15:41.539Z,11.00
2018-11-04T22:18:10.086Z,11.00
2018-11-04T22:20:41.295Z,11.00
2018-11-04T22:23:09.872Z,11.00
2018-11-04T22:25:38.469Z,10.90
2018-11-04T22:28:07.331Z,10.90
2018-11-04T22:30:36.058Z,11.00
2018-11-04T22:33:04.728Z,11.00
2018-11-04T22:35:33.782Z,11.00
2018-11-04T22:38:02.552Z,10.90
2018-11-04T22:40:31.475Z,11.00
2018-11-04T22:43:01.059Z,11.00
2018-11-04T22:45:30.572Z,11.00
2018-11-04T22:47:59.226Z,11.00
2018-11-04T22:50:27.932Z,11.00
2018-11-04T22:52:56.704Z,11.00
2018-11-04T22:55:32.174Z,11.00
2018-11-04T22:58:06.980Z,11.00
2018-11-04T23:00:41.069Z,11.00
2018-11-04T23:03:10.290Z,11.00
2018-11-04T23:05:39.073Z,11.00
2018-11-04T23:08:08.072Z,11.00
2018-11-04T23:10:36.664Z,11.00
2018-11-04T23:13:05.441Z,11.00
2018-11-04T23:15:34.230Z,11.00
2018-11-04T23:18:04.550Z,11.00
2018-11-04T23:20:33.136Z,11.00
2018-11-04T23:23:01.717Z,11.00
2018-11-04T23:25:31.254Z,11.00
2018-11-04T23:28:00.115Z,11.00
2018-11-04T23:30:28.976Z,11.00
2018-11-04T23:32:57.578Z,11.00
2018-11-04T23:35:26.277Z,10.90
2018-11-04T23:37:54.960Z,10.90
2018-11-04T23:40:23.522Z,10.90
2018-11-04T23:42:52.275Z,10.90
2018-11-04T23:45:20.786Z,10.90
2018-11-04T23:47:49.464Z,10.90
2018-11-04T23:50:17.956Z,10.90
2018-11-04T23:52:46.854Z,10.90
2018-11-04T23:55:16.110Z,10.90
2018-11-04T23:57:45.130Z,10.90
